Time,TemperatureF,DewpointF,PressureIn,WindDirection,WindDirectionDegrees,WindSpeedMPH,WindSpeedGustMPH,Humidity,HourlyPrecipIn,Conditions,Clouds,dailyrainin,SoftwareType,DateUTC
2013-02-16 00:00:00,47.2,36.4,29.93,WNW,288,0.0,1.0,66,0.00,,---,0.00,VWS V14.01,2013-02-16 05:00:00,
2013-02-16 00:15:00,46.8,36.4,29.93,WNW,290,0.0,1.0,67,0.00,,---,0.00,VWS V14.01,2013-02-16 05:15:00,
2013-02-16 00:30:00,46.4,36.4,29.93,WNW,288,0.0,1.0,68,0.00,,---,0.00,VWS V14.01,2013-02-16 05:30:00,
2013-02-16 00:45:00,45.7,36.5,29.93,WNW,288,0.0,0.0,70,0.00,,---,0.00,VWS V14.01,2013-02-16 05:45:00,
2013-02-16 01:00:00,45.2,36.7,29.93,WNW,288,0.0,1.0,72,0.00,,---,0.00,VWS V14.01,2013-02-16 06:00:00,
2013-02-16 01:15:00,43.6,36.5,29.93,WNW,288,0.0,1.0,76,0.00,,---,0.00,VWS V14.01,2013-02-16 06:15:00,
2013-02-16 01:30:00,42.5,36.5,29.94,WNW,288,0.0,1.0,79,0.00,,---,0.00,VWS V14.01,2013-02-16 06:30:00,
2013-02-16 01:45:00,43.5,36.5,29.93,NW,305,1.0,2.0,76,0.00,,---,0.00,VWS V14.01,2013-02-16 06:45:00,
2013-02-16 02:00:00,43.8,36.1,29.93,NW,305,0.0,1.0,74,0.00,,---,0.00,VWS V14.01,2013-02-16 07:00:00,
2013-02-16 02:15:00,42.8,36.1,29.92,NW,305,0.0,0.0,77,0.00,,---,0.00,VWS V14.01,2013-02-16 07:15:00,
2013-02-16 02:30:00,43.1,36.4,29.92,NW,319,0.0,1.0,77,0.00,,---,0.00,VWS V14.01,2013-02-16 07:30:00,
2013-02-16 02:45:00,43.3,36.6,29.92,NW,324,0.0,3.0,77,0.00,,---,0.00,VWS V14.01,2013-02-16 07:45:00,
2013-02-16 03:00:00,43.3,36.6,29.92,NW,312,0.0,2.0,77,0.00,,---,0.00,VWS V14.01,2013-02-16 08:00:00,
2013-02-16 03:15:00,43.3,36.9,29.91,NW,311,1.0,1.0,78,0.00,,---,0.00,VWS V14.01,2013-02-16 08:15:00,
2013-02-16 03:30:00,43.1,36.4,29.91,NW,304,2.0,3.0,77,0.00,,---,0.00,VWS V14.01,2013-02-16 08:30:00,
2013-02-16 03:45:00,42.9,36.5,29.90,NW,325,2.0,3.0,78,0.00,,---,0.00,VWS V14.01,2013-02-16 08:45:00,
2013-02-16 04:00:00,42.7,36.7,29.90,NW,322,0.0,2.0,79,0.00,,---,0.00,VWS V14.01,2013-02-16 09:00:00,
2013-02-16 04:15:00,42.5,36.8,29.90,NNW,328,1.0,2.0,80,0.00,,---,0.00,VWS V14.01,2013-02-16 09:15:00,
2013-02-16 04:30:00,42.2,36.8,29.90,NW,317,0.0,1.0,81,0.00,,---,0.00,VWS V14.01,2013-02-16 09:30:00,
2013-02-16 04:45:00,42.0,36.6,29.90,NNW,328,1.0,4.0,81,0.00,,---,0.00,VWS V14.01,2013-02-16 09:45:00,
2013-02-16 05:00:00,41.7,36.3,29.90,NW,319,3.0,3.0,81,0.00,,---,0.00,VWS V14.01,2013-02-16 10:00:00,
2013-02-16 05:15:00,41.4,36.3,29.90,NNW,342,2.0,3.0,82,0.00,,---,0.00,VWS V14.01,2013-02-16 10:15:00,
2013-02-16 05:30:00,41.2,36.1,29.90,NNW,335,1.0,4.0,82,0.00,,---,0.00,VWS V14.01,2013-02-16 10:30:00,
2013-02-16 05:45:00,41.7,36.3,29.90,NW,311,3.0,5.0,81,0.00,,---,0.00,VWS V14.01,2013-02-16 10:45:00,
2013-02-16 06:00:00,41.4,36.3,29.91,NNW,330,2.0,5.0,82,0.00,,---,0.00,VWS V14.01,2013-02-16 11:00:00,
2013-02-16 06:15:00,41.2,35.8,29.91,NW,308,1.0,3.0,81,0.00,,---,0.00,VWS V14.01,2013-02-16 11:15:00,
2013-02-16 06:30:00,40.9,35.8,29.91,NW,311,2.0,4.0,82,0.00,,---,0.00,VWS V14.01,2013-02-16 11:30:00,
2013-02-16 06:45:00,40.9,36.1,29.90,NNW,330,0.0,3.0,83,0.00,,---,0.00,VWS V14.01,2013-02-16 11:45:00,
2013-02-16 07:00:00,40.9,36.1,29.90,NNE,18,0.0,2.0,83,0.00,,---,0.00,VWS V14.01,2013-02-16 12:00:00,
2013-02-16 07:15:00,40.9,36.8,29.90,NW,325,1.0,2.0,85,0.00,,---,0.00,VWS V14.01,2013-02-16 12:15:00,
2013-02-16 07:30:00,40.8,36.9,29.90,NW,319,1.0,2.0,86,0.00,,---,0.00,VWS V14.01,2013-02-16 12:30:00,
2013-02-16 07:45:00,40.6,37.6,29.90,NW,326,0.0,2.0,89,0.00,,---,0.00,VWS V14.01,2013-02-16 12:45:00,
2013-02-16 08:00:00,40.2,38.1,29.91,NW,309,0.0,3.0,92,0.01,,---,0.01,VWS V14.01,2013-02-16 13:00:00,
2013-02-16 08:15:00,39.9,38.0,29.93,NW,315,1.0,5.0,93,0.03,,---,0.03,VWS V14.01,2013-02-16 13:15:00,
2013-02-16 08:30:00,39.9,38.3,29.94,WNW,300,2.0,4.0,94,0.05,,---,0.05,VWS V14.01,2013-02-16 13:30:00,
2013-02-16 08:45:00,39.6,38.0,29.94,NW,324,3.0,8.0,94,0.09,,---,0.09,VWS V14.01,2013-02-16 13:45:00,
2013-02-16 09:00:00,39.6,38.0,29.94,NW,312,2.0,6.0,94,0.10,,---,0.10,VWS V14.01,2013-02-16 14:00:00,
2013-02-16 09:15:00,39.7,38.1,29.94,NW,322,2.0,4.0,94,0.09,,---,0.10,VWS V14.01,2013-02-16 14:15:00,
2013-02-16 09:30:00,39.8,38.5,29.94,NW,308,1.0,3.0,95,0.09,,---,0.12,VWS V14.01,2013-02-16 14:30:00,
2013-02-16 09:45:00,39.3,37.5,29.94,NNW,331,3.0,8.0,93,0.09,,---,0.14,VWS V14.01,2013-02-16 14:45:00,
2013-02-16 10:00:00,38.5,36.7,29.95,NNW,332,4.0,7.0,93,0.07,,---,0.16,VWS V14.01,2013-02-16 15:00:00,
2013-02-16 10:15:00,37.1,35.3,29.94,East,98,2.0,6.0,93,0.08,,---,0.18,VWS V14.01,2013-02-16 15:15:00,
2013-02-16 10:30:00,37.0,35.4,29.92,North,354,0.0,4.0,94,0.08,,---,0.18,VWS V14.01,2013-02-16 15:30:00,
2013-02-16 10:45:00,37.6,36.0,29.94,ESE,107,1.0,2.0,94,0.06,,---,0.18,VWS V14.01,2013-02-16 15:45:00,
2013-02-16 11:00:00,37.7,36.1,29.92,East,79,0.0,3.0,94,0.04,,---,0.18,VWS V14.01,2013-02-16 16:00:00,
2013-02-16 11:15:00,38.0,36.4,29.93,NW,318,2.0,5.0,94,0.02,,---,0.18,VWS V14.01,2013-02-16 16:15:00,
2013-02-16 11:30:00,37.9,36.3,29.93,East,84,0.0,5.0,94,0.00,,---,0.18,VWS V14.01,2013-02-16 16:30:00,
2013-02-16 11:45:00,38.1,36.5,29.92,East,91,2.0,2.0,94,0.00,,---,0.18,VWS V14.01,2013-02-16 16:45:00,
2013-02-16 12:00:00,38.6,37.0,29.90,East,98,1.0,3.0,94,0.00,,---,0.18,VWS V14.01,2013-02-16 17:00:00,
2013-02-16 12:15:00,39.0,37.4,29.90,SSW,203,2.0,2.0,94,0.00,,---,0.18,VWS V14.01,2013-02-16 17:15:00,
2013-02-16 12:30:00,39.3,37.7,29.89,SE,136,0.0,3.0,94,0.00,,---,0.18,VWS V14.01,2013-02-16 17:30:00,
2013-02-16 12:45:00,40.1,38.5,29.88,ESE,112,0.0,2.0,94,0.00,,---,0.18,VWS V14.01,2013-02-16 17:45:00,
2013-02-16 13:00:00,40.8,38.9,29.88,SW,217,0.0,2.0,93,0.00,,---,0.18,VWS V14.01,2013-02-16 18:00:00,
2013-02-16 13:15:00,41.7,39.3,29.86,SE,145,1.0,3.0,91,0.00,,---,0.18,VWS V14.01,2013-02-16 18:15:00,
2013-02-16 13:30:00,42.6,39.6,29.86,SSW,212,0.0,3.0,89,0.00,,---,0.18,VWS V14.01,2013-02-16 18:30:00,
2013-02-16 13:45:00,43.6,40.3,29.85,ESE,115,1.0,4.0,88,0.00,,---,0.18,VWS V14.01,2013-02-16 18:45:00,
2013-02-16 14:00:00,44.4,39.9,29.83,SE,126,1.0,3.0,84,0.00,,---,0.18,VWS V14.01,2013-02-16 19:00:00,
2013-02-16 14:15:00,46.2,38.7,29.82,SSW,206,1.0,7.0,75,0.00,,---,0.18,VWS V14.01,2013-02-16 19:15:00,
2013-02-16 14:30:00,47.6,39.0,29.82,NW,309,3.0,7.0,72,0.00,,---,0.18,VWS V14.01,2013-02-16 19:30:00,
2013-02-16 14:45:00,48.7,36.3,29.81,WNW,300,5.0,11.0,62,0.00,,---,0.18,VWS V14.01,2013-02-16 19:45:00,
2013-02-16 15:00:00,46.7,34.0,29.81,NW,304,2.0,14.0,61,0.00,,---,0.18,VWS V14.01,2013-02-16 20:00:00,
2013-02-16 15:15:00,45.8,27.7,29.80,NW,316,3.0,14.0,49,0.00,,---,0.18,VWS V14.01,2013-02-16 20:15:00,
2013-02-16 15:30:00,45.5,26.5,29.81,NW,315,3.0,13.0,47,0.00,,---,0.18,VWS V14.01,2013-02-16 20:30:00,
2013-02-16 15:45:00,45.3,25.8,29.82,West,274,6.0,14.0,46,0.00,,---,0.18,VWS V14.01,2013-02-16 20:45:00,
2013-02-16 16:00:00,46.7,26.0,29.81,WNW,299,6.0,12.0,44,0.00,,---,0.18,VWS V14.01,2013-02-16 21:00:00,
2013-02-16 16:15:00,47.1,25.8,29.81,West,266,1.0,20.0,43,0.00,,---,0.18,VWS V14.01,2013-02-16 21:15:00,
2013-02-16 16:30:00,46.3,23.3,29.83,NW,305,11.0,20.0,40,0.00,,---,0.18,VWS V14.01,2013-02-16 21:30:00,
2013-02-16 16:45:00,44.2,20.8,29.83,NW,308,3.0,18.0,39,0.00,,---,0.18,VWS V14.01,2013-02-16 21:45:00,
2013-02-16 17:00:00,43.9,20.0,29.84,NW,309,7.0,16.0,38,0.00,,---,0.18,VWS V14.01,2013-02-16 22:00:00,
2013-02-16 17:15:00,44.6,18.7,29.85,WNW,284,4.0,16.0,35,0.00,,---,0.18,VWS V14.01,2013-02-16 22:15:00,
2013-02-16 17:30:00,44.3,17.7,29.86,NNW,330,10.0,19.0,34,0.00,,---,0.18,VWS V14.01,2013-02-16 22:30:00,
2013-02-16 17:45:00,43.3,17.5,29.87,WNW,284,7.0,16.0,35,0.00,,---,0.18,VWS V14.01,2013-02-16 22:45:00,
2013-02-16 18:00:00,40.7,30.6,29.89,NW,315,4.0,14.0,67,0.00,,---,0.18,VWS V14.01,2013-02-16 23:00:00,
2013-02-16 18:15:00,38.5,30.6,29.90,NW,308,1.0,14.0,73,0.00,,---,0.18,VWS V14.01,2013-02-16 23:15:00,
2013-02-16 18:30:00,37.5,30.3,29.91,NW,314,5.0,7.0,75,0.00,,---,0.18,VWS V14.01,2013-02-16 23:30:00,
2013-02-16 18:45:00,36.8,30.3,29.93,WNW,284,1.0,5.0,77,0.00,,---,0.18,VWS V14.01,2013-02-16 23:45:00,
2013-02-16 19:00:00,36.4,30.2,29.94,NW,323,3.0,8.0,78,0.00,,---,0.18,VWS V14.01,2013-02-17 00:00:00,
2013-02-16 19:15:00,36.2,30.0,29.94,WNW,300,2.0,5.0,78,0.00,,---,0.18,VWS V14.01,2013-02-17 00:15:00,
2013-02-16 19:30:00,36.3,29.1,29.95,NW,319,2.0,5.0,75,0.00,,---,0.18,VWS V14.01,2013-02-17 00:30:00,
2013-02-16 19:45:00,36.2,27.7,29.95,NW,314,2.0,6.0,71,0.00,,---,0.18,VWS V14.01,2013-02-17 00:45:00,
2013-02-16 20:00:00,35.9,24.9,29.96,WNW,297,4.0,7.0,64,0.00,,---,0.18,VWS V14.01,2013-02-17 01:00:00,
2013-02-16 20:15:00,36.2,18.9,29.97,NW,308,4.0,11.0,49,0.00,,---,0.18,VWS V14.01,2013-02-17 01:15:00,
2013-02-16 20:30:00,36.2,16.9,29.98,NW,308,4.0,15.0,45,0.00,,---,0.18,VWS V14.01,2013-02-17 01:30:00,
2013-02-16 20:45:00,35.8,17.1,29.99,NW,308,3.0,11.0,46,0.00,,---,0.18,VWS V14.01,2013-02-17 01:45:00,
2013-02-16 21:00:00,35.5,16.3,30.00,WNW,294,6.0,18.0,45,0.00,,---,0.18,VWS V14.01,2013-02-17 02:00:00,
2013-02-16 21:15:00,35.2,16.0,30.01,NW,319,6.0,14.0,45,0.00,,---,0.18,VWS V14.01,2013-02-17 02:15:00,
2013-02-16 21:30:00,34.7,16.5,30.02,NNW,328,5.0,12.0,47,0.00,,---,0.18,VWS V14.01,2013-02-17 02:30:00,
2013-02-16 21:45:00,34.6,16.5,30.02,WNW,302,7.0,10.0,47,0.00,,---,0.18,VWS V14.01,2013-02-17 02:45:00,
2013-02-16 22:00:00,34.1,17.0,30.03,West,281,4.0,13.0,49,0.00,,---,0.18,VWS V14.01,2013-02-17 03:00:00,
2013-02-16 22:15:00,33.7,17.0,30.03,WNW,292,4.0,11.0,50,0.00,,---,0.18,VWS V14.01,2013-02-17 03:15:00,
2013-02-16 22:30:00,33.3,17.1,30.04,NW,304,5.0,10.0,51,0.00,,---,0.18,VWS V14.01,2013-02-17 03:30:00,
2013-02-16 22:45:00,33.2,17.5,30.05,NW,304,5.0,10.0,52,0.00,,---,0.18,VWS V14.01,2013-02-17 03:45:00,
2013-02-16 23:00:00,32.8,17.1,30.05,WNW,290,4.0,12.0,52,0.00,,---,0.18,VWS V14.01,2013-02-17 04:00:00,
2013-02-16 23:15:00,32.2,17.4,30.05,NW,304,1.0,6.0,54,0.00,,---,0.18,VWS V14.01,2013-02-17 04:15:00,
2013-02-16 23:30:00,32.0,17.7,30.05,WNW,286,1.0,8.0,55,0.00,,---,0.18,VWS V14.01,2013-02-17 04:30:00,
2013-02-16 23:45:00,31.5,17.6,30.05,WNW,283,2.0,7.0,56,0.00,,---,0.18,VWS V14.01,2013-02-17 04:45:00,